Nimrod, Minnesota
Current Conditions -  °F | °C
As of 2:13 AM on Tuesday 27 Jan 2015 (Local Time) from KSAZ Reporting Station
Overcast Overcast  
Wind Chill: 28°   Ceiling: 1100
Heat Index: 28°   Visibility: 10mi
Dew Point: 25°   Wind: 0mph
Humidity: 86%   Direction: NA
Pressure: 30.04"   Gusts: NA
Location:  46.64°N, 94.88°W
Report Text: KSAZ 270813Z AUTO 00000KT 10SM OVC011 M02/M04 A3004 RMK AO2
Loading
Personal Weather Stations






























Interactive Weather Map New forecast layout! Learn more

10-Day Weather Forecast

Advertisements
Track Severe Weather on mobile